Time;durP1;ratioP1;P1;durP2;ratioP2;P2;SDS_P1;SDS_P2;PMS_P1;PMS_P2;Temp;Humidity;BMP_temperature;BMP_pressure;BME280_temperature;BME280_humidity;BME280_pressure;Samples;Min_cycle;Max_cycle;Signal;HPM_P1;HPM_P2
2022/01/08 00:00:06;;;;;;;9.93;3.30;;;;;;;;;;5049625;28;20071;-92
2022/01/08 00:02:31;;;;;;;10.10;4.00;;;;;;;;;;5016395;28;20017;-92
2022/01/08 00:04:58;;;;;;;6.90;2.70;;;;;;;;;;5016563;28;20013;-92
2022/01/08 00:07:23;;;;;;;11.73;2.97;;;;;;;;;;5016574;28;20072;-93
2022/01/08 00:09:48;;;;;;;11.97;4.00;;;;;;;;;;5016406;28;20017;-92
2022/01/08 00:12:14;;;;;;;13.20;4.47;;;;;;;;;;5023195;28;20388;-93
2022/01/08 00:14:39;;;;;;;12.87;4.33;;;;;;;;;;5017999;28;20523;-92
2022/01/08 00:17:04;;;;;;;16.60;5.00;;;;;;;;;;5016655;28;20104;-92
2022/01/08 00:19:30;;;;;;;11.40;4.50;;;;;;;;;;5016645;28;20018;-92
2022/01/08 00:21:55;;;;;;;12.13;4.20;;;;;;;;;;5016596;28;20026;-92
2022/01/08 00:24:20;;;;;;;14.90;4.77;;;;;;;;;;5016643;28;20022;-92
2022/01/08 00:26:45;;;;;;;16.70;5.87;;;;;;;;;;5052095;28;20472;-92
2022/01/08 00:29:11;;;;;;;13.97;5.67;;;;;;;;;;5035533;28;20032;-93
2022/01/08 00:31:36;;;;;;;18.17;5.70;;;;;;;;;;5036202;28;20028;-91
2022/01/08 00:34:01;;;;;;;14.07;4.90;;;;;;;;;;5036241;28;20048;-92
2022/01/08 00:36:27;;;;;;;16.33;5.33;;;;;;;;;;5036381;28;20017;-92
2022/01/08 00:38:52;;;;;;;15.90;5.77;;;;;;;;;;5036300;28;20017;-92
2022/01/08 00:41:17;;;;;;;18.77;5.23;;;;;;;;;;5036298;28;20739;-92
2022/01/08 00:43:42;;;;;;;17.23;6.10;;;;;;;;;;5036287;28;20029;-92
2022/01/08 00:46:08;;;;;;;15.43;5.83;;;;;;;;;;5036243;28;20036;-92
2022/01/08 00:48:33;;;;;;;17.93;5.37;;;;;;;;;;5035912;28;20123;-92
2022/01/08 00:50:58;;;;;;;23.37;6.03;;;;;;;;;;5036082;28;20021;-92
2022/01/08 00:53:23;;;;;;;17.90;5.93;;;;;;;;;;5036162;28;20052;-92
2022/01/08 00:55:48;;;;;;;18.73;6.20;;;;;;;;;;5053793;28;20013;-92
2022/01/08 00:58:14;;;;;;;14.60;5.00;;;;;;;;;;5053711;28;20017;-92
2022/01/08 01:00:41;;;;;;;19.50;5.50;;;;;;;;;;5036097;28;20032;-92
2022/01/08 01:03:07;;;;;;;11.50;4.97;;;;;;;;;;5035972;28;20017;-92
2022/01/08 01:05:32;;;;;;;17.33;5.27;;;;;;;;;;5035890;28;20511;-92
2022/01/08 01:07:57;;;;;;;19.93;5.83;;;;;;;;;;5026516;28;20124;-92
2022/01/08 01:10:22;;;;;;;15.73;5.87;;;;;;;;;;5016374;28;20453;-92
2022/01/08 01:12:48;;;;;;;18.37;5.60;;;;;;;;;;5016251;28;20026;-92
2022/01/08 01:15:14;;;;;;;11.47;5.40;;;;;;;;;;5016173;28;20021;-93
2022/01/08 01:17:39;;;;;;;23.03;4.80;;;;;;;;;;5016354;28;20024;-92
2022/01/08 01:20:06;;;;;;;17.50;5.27;;;;;;;;;;5016123;28;20021;-92
2022/01/08 01:22:42;;;;;;;15.80;4.80;;;;;;;;;;5033456;28;20066;-92
2022/01/08 01:25:09;;;;;;;17.10;5.70;;;;;;;;;;5016057;28;20017;-92
2022/01/08 01:30:10;;;;;;;17.07;5.43;;;;;;;;;;5056828;28;20017;-93
2022/01/08 01:41:21;;;;;;;13.50;4.83;;;;;;;;;;4986367;28;20087;-93
2022/01/08 01:49:01;;;;;;;18.37;4.83;;;;;;;;;;5057246;28;20116;-93
2022/01/08 01:51:26;;;;;;;15.40;4.90;;;;;;;;;;5039039;28;20107;-92
2022/01/08 01:53:51;;;;;;;17.73;4.97;;;;;;;;;;5038993;28;20530;-92
2022/01/08 01:56:18;;;;;;;17.37;4.67;;;;;;;;;;5038948;28;20017;-92
2022/01/08 01:58:43;;;;;;;12.30;4.43;;;;;;;;;;5038890;28;20021;-92
2022/01/08 02:01:09;;;;;;;14.47;4.50;;;;;;;;;;5038197;28;20533;-92
2022/01/08 02:03:34;;;;;;;13.83;4.57;;;;;;;;;;5038950;28;20592;-92
2022/01/08 02:05:59;;;;;;;11.87;4.00;;;;;;;;;;5056430;28;20029;-92
2022/01/08 02:08:25;;;;;;;14.77;4.33;;;;;;;;;;5038729;28;20078;-93
2022/01/08 02:10:50;;;;;;;13.20;4.20;;;;;;;;;;5038510;28;20083;-92
2022/01/08 02:13:22;;;;;;;11.93;3.83;;;;;;;;;;5038675;28;20036;-92
2022/01/08 02:15:50;;;;;;;12.18;4.05;;;;;;;;;;5038752;28;20036;-92
2022/01/08 02:18:15;;;;;;;16.97;4.03;;;;;;;;;;5038647;28;20024;-92
2022/01/08 02:20:40;;;;;;;12.07;3.90;;;;;;;;;;5038130;28;20075;-92
2022/01/08 02:23:06;;;;;;;8.57;3.10;;;;;;;;;;5055944;28;20017;-92
2022/01/08 02:25:31;;;;;;;15.13;3.37;;;;;;;;;;5038481;28;20376;-92
2022/01/08 02:27:56;;;;;;;12.77;4.10;;;;;;;;;;5038412;28;20016;-91
2022/01/08 02:30:21;;;;;;;10.43;2.90;;;;;;;;;;5038369;28;20423;-92
2022/01/08 02:32:47;;;;;;;10.60;2.97;;;;;;;;;;5038419;28;20028;-92
2022/01/08 02:35:12;;;;;;;12.00;3.27;;;;;;;;;;5038325;28;20025;-92
2022/01/08 02:37:37;;;;;;;10.43;2.70;;;;;;;;;;5038118;28;20024;-92
2022/01/08 02:40:05;;;;;;;7.87;2.53;;;;;;;;;;5037079;28;20028;-93
2022/01/08 02:42:37;;;;;;;11.30;2.87;;;;;;;;;;5037824;28;20017;-92
2022/01/08 02:45:03;;;;;;;9.73;2.53;;;;;;;;;;5038012;28;20028;-92
2022/01/08 02:47:28;;;;;;;10.13;2.40;;;;;;;;;;5037941;28;20017;-92
2022/01/08 02:49:53;;;;;;;7.87;2.80;;;;;;;;;;5037820;28;20025;-91
2022/01/08 02:52:19;;;;;;;11.83;2.77;;;;;;;;;;5037834;28;20067;-92
2022/01/08 02:54:44;;;;;;;10.53;2.97;;;;;;;;;;5037107;28;20044;-92
2022/01/08 02:57:09;;;;;;;12.00;2.70;;;;;;;;;;5037836;28;20455;-93
2022/01/08 02:59:35;;;;;;;8.83;2.63;;;;;;;;;;5037779;28;20112;-91
2022/01/08 03:02:00;;;;;;;14.27;3.20;;;;;;;;;;5055638;28;20028;-92
2022/01/08 03:04:25;;;;;;;11.37;3.40;;;;;;;;;;5037593;28;20353;-91
2022/01/08 03:06:50;;;;;;;9.70;2.87;;;;;;;;;;5037272;28;20033;-92
2022/01/08 03:09:16;;;;;;;7.53;2.93;;;;;;;;;;5037454;28;20465;-92
2022/01/08 03:11:43;;;;;;;16.43;2.83;;;;;;;;;;5037340;28;20020;-92
2022/01/08 03:14:08;;;;;;;7.30;2.23;;;;;;;;;;5037302;28;20033;-92
2022/01/08 03:16:34;;;;;;;13.97;3.43;;;;;;;;;;5037141;28;20032;-92
2022/01/08 03:19:07;;;;;;;9.87;2.93;;;;;;;;;;5022722;28;20106;-92
2022/01/08 03:21:35;;;;;;;10.37;2.87;;;;;;;;;;5035111;28;20021;-91
2022/01/08 03:24:01;;;;;;;10.40;2.80;;;;;;;;;;5017386;28;20025;-92
2022/01/08 03:26:27;;;;;;;8.73;3.00;;;;;;;;;;5017635;28;20033;-92
2022/01/08 03:28:53;;;;;;;11.30;2.70;;;;;;;;;;5017419;28;20029;-92
2022/01/08 03:31:19;;;;;;;16.50;3.17;;;;;;;;;;5017243;28;20021;-92
2022/01/08 03:33:44;;;;;;;6.60;2.73;;;;;;;;;;5017321;28;20053;-91
2022/01/08 03:36:10;;;;;;;8.67;2.73;;;;;;;;;;5017272;28;20025;-92
2022/01/08 03:38:35;;;;;;;8.37;2.83;;;;;;;;;;5017205;28;20025;-92
2022/01/08 03:41:01;;;;;;;11.67;3.13;;;;;;;;;;5037515;28;20036;-92
2022/01/08 03:43:26;;;;;;;13.30;3.30;;;;;;;;;;5053316;28;20036;-91
2022/01/08 03:45:51;;;;;;;10.53;3.20;;;;;;;;;;5053349;28;20028;-92
2022/01/08 03:48:25;;;;;;;7.27;3.13;;;;;;;;;;5053020;28;20377;-91
2022/01/08 03:50:50;;;;;;;10.87;2.80;;;;;;;;;;5053178;28;20486;-92
2022/01/08 03:53:16;;;;;;;12.27;3.63;;;;;;;;;;5053027;28;20025;-92
2022/01/08 03:55:41;;;;;;;8.03;3.60;;;;;;;;;;5053121;28;20223;-91
2022/01/08 03:58:06;;;;;;;11.10;4.00;;;;;;;;;;5053139;28;20116;-91
2022/01/08 04:00:31;;;;;;;12.57;3.43;;;;;;;;;;5054288;28;20476;-92
2022/01/08 04:02:57;;;;;;;10.70;4.30;;;;;;;;;;5053062;28;20020;-91
2022/01/08 04:05:22;;;;;;;13.90;4.50;;;;;;;;;;5052917;28;20031;-91
2022/01/08 04:07:47;;;;;;;12.20;3.93;;;;;;;;;;5053904;28;20115;-92
2022/01/08 04:10:12;;;;;;;6.30;3.70;;;;;;;;;;5054195;28;20025;-92
2022/01/08 04:12:45;;;;;;;13.10;4.00;;;;;;;;;;5036504;28;20027;-91
2022/01/08 04:15:33;;;;;;;13.73;4.30;;;;;;;;;;5036365;28;20045;-91
2022/01/08 04:17:58;;;;;;;13.97;4.63;;;;;;;;;;5053989;28;20017;-91
2022/01/08 04:20:24;;;;;;;12.53;5.13;;;;;;;;;;5054242;28;20029;-91
2022/01/08 04:22:51;;;;;;;12.73;4.93;;;;;;;;;;5036314;28;20021;-91
2022/01/08 04:25:17;;;;;;;15.67;4.63;;;;;;;;;;5036316;28;20134;-91
2022/01/08 04:27:42;;;;;;;15.83;5.27;;;;;;;;;;5036018;28;20044;-91
2022/01/08 04:30:08;;;;;;;11.70;4.90;;;;;;;;;;5036428;28;20017;-91
2022/01/08 04:32:33;;;;;;;18.40;5.63;;;;;;;;;;5036322;28;20021;-91
2022/01/08 04:34:58;;;;;;;21.93;5.83;;;;;;;;;;5053975;28;20013;-91
2022/01/08 04:37:23;;;;;;;14.10;5.50;;;;;;;;;;5036310;28;20035;-92
2022/01/08 04:39:48;;;;;;;16.13;4.87;;;;;;;;;;5032348;28;20009;-92
2022/01/08 04:42:14;;;;;;;17.30;6.10;;;;;;;;;;5016387;28;20029;-91
2022/01/08 04:44:39;;;;;;;17.37;6.33;;;;;;;;;;5034196;28;20029;-92
2022/01/08 04:47:04;;;;;;;21.07;6.00;;;;;;;;;;5036091;28;20025;-91
2022/01/08 04:49:29;;;;;;;12.60;5.50;;;;;;;;;;5036202;28;20021;-92
2022/01/08 04:51:55;;;;;;;14.53;5.37;;;;;;;;;;5035823;28;20473;-91
2022/01/08 04:54:20;;;;;;;14.63;6.10;;;;;;;;;;5036111;28;20099;-91
2022/01/08 04:56:45;;;;;;;16.53;6.67;;;;;;;;;;5036049;28;20570;-91
2022/01/08 04:59:11;;;;;;;13.83;6.40;;;;;;;;;;5036090;28;20020;-91
2022/01/08 05:01:36;;;;;;;11.23;5.80;;;;;;;;;;5036008;28;20146;-91
2022/01/08 05:04:02;;;;;;;19.90;6.13;;;;;;;;;;5037551;28;20119;-91
2022/01/08 05:06:27;;;;;;;15.30;6.30;;;;;;;;;;5039789;28;20033;-91
2022/01/08 05:08:52;;;;;;;23.43;6.93;;;;;;;;;;5039200;28;20039;-91
2022/01/08 05:11:17;;;;;;;15.03;6.50;;;;;;;;;;5039724;28;20024;-91
2022/01/08 05:13:44;;;;;;;14.80;6.10;;;;;;;;;;5039767;28;20044;-91
2022/01/08 05:16:10;;;;;;;16.93;6.63;;;;;;;;;;5039864;28;20078;-91
2022/01/08 05:18:35;;;;;;;17.73;6.30;;;;;;;;;;5039734;28;20025;-91
2022/01/08 05:23:44;;;;;;;17.17;6.67;;;;;;;;;;5057628;28;20380;-92
2022/01/08 05:26:10;;;;;;;17.50;6.23;;;;;;;;;;5039403;28;20017;-92
2022/01/08 05:28:35;;;;;;;16.43;6.37;;;;;;;;;;5039347;28;20494;-91
2022/01/08 05:31:00;;;;;;;11.10;6.27;;;;;;;;;;5039219;28;20028;-91
2022/01/08 05:33:26;;;;;;;14.50;6.70;;;;;;;;;;5039362;28;20025;-91
2022/01/08 05:35:51;;;;;;;14.87;6.77;;;;;;;;;;5039383;28;20124;-91
2022/01/08 05:38:16;;;;;;;18.80;5.90;;;;;;;;;;5039130;28;20024;-92
2022/01/08 05:40:42;;;;;;;19.37;7.20;;;;;;;;;;5039233;28;20052;-91
2022/01/08 05:43:07;;;;;;;20.13;7.50;;;;;;;;;;5039134;28;20380;-91
2022/01/08 05:45:32;;;;;;;18.07;6.67;;;;;;;;;;5039140;28;20507;-91
2022/01/08 05:47:57;;;;;;;15.73;7.80;;;;;;;;;;5056936;28;20464;-91
2022/01/08 05:50:22;;;;;;;23.47;8.03;;;;;;;;;;5039056;28;20033;-91
2022/01/08 05:52:48;;;;;;;16.63;7.70;;;;;;;;;;5039019;28;20021;-91
2022/01/08 05:55:14;;;;;;;21.07;7.37;;;;;;;;;;5038287;28;20142;-92
2022/01/08 05:57:39;;;;;;;16.87;7.70;;;;;;;;;;5038916;28;20021;-91
2022/01/08 06:00:05;;;;;;;17.70;8.10;;;;;;;;;;5038831;28;20381;-92
2022/01/08 06:02:30;;;;;;;20.73;8.50;;;;;;;;;;5038672;28;20025;-91
2022/01/08 06:04:55;;;;;;;24.80;8.47;;;;;;;;;;5038826;28;20025;-92
2022/01/08 06:07:20;;;;;;;23.20;8.60;;;;;;;;;;5038813;28;20366;-91
2022/01/08 06:09:46;;;;;;;23.93;8.10;;;;;;;;;;5038892;28;20028;-91
2022/01/08 06:12:11;;;;;;;17.83;8.40;;;;;;;;;;5038477;28;20449;-91
2022/01/08 06:14:36;;;;;;;18.17;7.87;;;;;;;;;;5038551;28;20055;-92
2022/01/08 06:17:01;;;;;;;18.30;7.90;;;;;;;;;;5038650;28;20481;-92
2022/01/08 06:19:27;;;;;;;16.53;8.03;;;;;;;;;;5038623;28;20021;-91
2022/01/08 06:21:52;;;;;;;21.10;7.77;;;;;;;;;;5038483;28;20123;-91
2022/01/08 06:24:17;;;;;;;23.07;8.83;;;;;;;;;;5038595;28;20060;-92
2022/01/08 06:26:42;;;;;;;20.07;8.93;;;;;;;;;;5055854;28;20032;-91
2022/01/08 06:29:08;;;;;;;17.13;7.77;;;;;;;;;;5038299;28;20067;-92
2022/01/08 06:31:33;;;;;;;17.17;7.97;;;;;;;;;;5038177;28;20166;-92
2022/01/08 06:33:58;;;;;;;18.77;7.73;;;;;;;;;;5055960;28;20025;-92
2022/01/08 06:36:23;;;;;;;21.63;8.53;;;;;;;;;;5038205;28;20029;-92
2022/01/08 06:38:49;;;;;;;21.20;8.00;;;;;;;;;;5055715;28;20088;-92
2022/01/08 06:41:16;;;;;;;24.07;9.20;;;;;;;;;;5038127;28;20021;-91
2022/01/08 06:43:41;;;;;;;40.20;16.57;;;;;;;;;;5037877;28;20028;-92
2022/01/08 06:46:06;;;;;;;42.73;17.77;;;;;;;;;;5037932;28;20393;-91
2022/01/08 06:48:31;;;;;;;24.07;10.80;;;;;;;;;;5056011;28;20013;-92
2022/01/08 06:50:56;;;;;;;18.47;9.57;;;;;;;;;;5037876;28;20495;-92
2022/01/08 06:53:22;;;;;;;19.63;9.60;;;;;;;;;;5055685;28;20017;-92
2022/01/08 06:55:47;;;;;;;25.07;10.83;;;;;;;;;;5037854;28;20021;-92
2022/01/08 06:58:12;;;;;;;23.60;10.10;;;;;;;;;;5037562;28;20021;-92
2022/01/08 07:00:38;;;;;;;27.13;9.90;;;;;;;;;;5037881;28;20024;-92
2022/01/08 07:03:05;;;;;;;22.30;9.43;;;;;;;;;;5037733;28;20025;-92
2022/01/08 07:05:30;;;;;;;19.60;9.10;;;;;;;;;;5037465;28;20116;-91
2022/01/08 07:07:56;;;;;;;25.20;9.83;;;;;;;;;;5037699;28;20052;-92
2022/01/08 07:10:21;;;;;;;23.90;9.57;;;;;;;;;;5037503;28;20551;-92
2022/01/08 07:12:46;;;;;;;22.67;10.23;;;;;;;;;;5037615;28;20112;-92
2022/01/08 07:15:12;;;;;;;27.53;10.17;;;;;;;;;;5037439;28;20021;-92
2022/01/08 07:17:38;;;;;;;28.63;11.73;;;;;;;;;;5037439;28;20013;-91
2022/01/08 07:20:04;;;;;;;25.87;10.93;;;;;;;;;;5037331;28;20025;-92
2022/01/08 07:22:30;;;;;;;29.37;11.70;;;;;;;;;;5037349;28;20021;-92
2022/01/08 07:24:55;;;;;;;22.03;10.70;;;;;;;;;;5037310;28;20487;-92
2022/01/08 07:27:20;;;;;;;30.93;11.90;;;;;;;;;;5028050;28;20028;-92
2022/01/08 07:29:45;;;;;;;26.23;12.27;;;;;;;;;;5017592;28;20532;-91
2022/01/08 07:32:11;;;;;;;26.30;11.43;;;;;;;;;;5017253;28;20033;-93
2022/01/08 07:34:36;;;;;;;30.27;12.23;;;;;;;;;;5051167;28;20021;-92
2022/01/08 07:37:01;;;;;;;25.37;12.60;;;;;;;;;;5018018;28;20023;-92
2022/01/08 07:39:26;;;;;;;27.43;11.87;;;;;;;;;;5034966;28;20013;-92
2022/01/08 07:41:51;;;;;;;31.87;12.30;;;;;;;;;;5017282;28;20029;-92
2022/01/08 07:44:17;;;;;;;27.07;11.93;;;;;;;;;;5017170;28;20087;-92
2022/01/08 07:46:42;;;;;;;27.50;12.23;;;;;;;;;;5034757;28;20025;-92
2022/01/08 07:49:09;;;;;;;27.63;13.47;;;;;;;;;;5028680;28;20029;-93
2022/01/08 07:51:34;;;;;;;27.07;13.10;;;;;;;;;;5036936;28;20054;-92
2022/01/08 07:53:59;;;;;;;26.83;11.50;;;;;;;;;;5036775;28;20112;-93
2022/01/08 07:56:24;;;;;;;26.93;12.20;;;;;;;;;;5054380;28;20100;-93
2022/01/08 07:58:50;;;;;;;30.47;12.90;;;;;;;;;;5036893;28;20384;-93
2022/01/08 08:01:15;;;;;;;33.63;14.43;;;;;;;;;;5036673;28;20027;-92
2022/01/08 08:03:40;;;;;;;29.13;12.60;;;;;;;;;;5036772;28;20021;-92
2022/01/08 08:06:09;;;;;;;30.77;13.77;;;;;;;;;;5032431;28;20108;-92
2022/01/08 08:08:34;;;;;;;30.90;13.53;;;;;;;;;;5016879;28;20021;-93
2022/01/08 08:10:59;;;;;;;29.67;13.33;;;;;;;;;;5016664;28;20056;-93
2022/01/08 08:13:24;;;;;;;32.50;14.13;;;;;;;;;;5016795;28;20020;-93
2022/01/08 08:15:50;;;;;;;31.17;14.30;;;;;;;;;;5016877;28;20021;-93
2022/01/08 08:18:15;;;;;;;32.27;12.77;;;;;;;;;;5016858;28;20024;-93
2022/01/08 08:20:41;;;;;;;34.17;14.30;;;;;;;;;;5016637;28;20025;-92
2022/01/08 08:23:06;;;;;;;33.57;12.87;;;;;;;;;;5016624;28;20068;-92
2022/01/08 08:25:32;;;;;;;31.03;13.63;;;;;;;;;;5034429;28;20030;-93
2022/01/08 08:27:57;;;;;;;27.10;12.30;;;;;;;;;;5033496;28;20056;-93
2022/01/08 08:30:22;;;;;;;27.50;12.07;;;;;;;;;;5036267;28;20112;-92
2022/01/08 08:32:48;;;;;;;29.77;11.17;;;;;;;;;;5036317;28;20111;-92
2022/01/08 08:35:13;;;;;;;29.80;11.03;;;;;;;;;;5036311;28;20025;-93
2022/01/08 08:37:38;;;;;;;26.17;10.73;;;;;;;;;;5036305;28;20380;-94
2022/01/08 08:40:04;;;;;;;31.60;11.93;;;;;;;;;;5039747;28;20473;-93
2022/01/08 08:42:29;;;;;;;19.03;7.63;;;;;;;;;;5040201;28;20028;-93
2022/01/08 08:44:54;;;;;;;21.63;7.90;;;;;;;;;;5040388;28;20430;-93
2022/01/08 08:47:20;;;;;;;27.87;10.83;;;;;;;;;;5040264;28;20029;-93
2022/01/08 08:49:45;;;;;;;28.13;11.63;;;;;;;;;;5040316;28;20021;-93
2022/01/08 08:52:10;;;;;;;22.27;10.53;;;;;;;;;;5040177;28;20033;-93
2022/01/08 08:54:35;;;;;;;28.67;10.57;;;;;;;;;;5040155;28;20407;-93
2022/01/08 08:57:01;;;;;;;25.57;10.93;;;;;;;;;;5040191;28;20013;-93
2022/01/08 08:59:26;;;;;;;29.33;11.43;;;;;;;;;;5039760;28;20021;-93
2022/01/08 09:01:51;;;;;;;27.97;11.10;;;;;;;;;;5040049;28;20430;-92
2022/01/08 09:04:16;;;;;;;28.00;9.10;;;;;;;;;;5057774;28;20024;-93
2022/01/08 09:06:41;;;;;;;27.47;9.97;;;;;;;;;;5039758;28;20028;-93
2022/01/08 09:09:07;;;;;;;24.97;9.27;;;;;;;;;;5039876;28;20057;-92
2022/01/08 09:11:32;;;;;;;28.37;10.10;;;;;;;;;;5039811;28;20115;-93
2022/01/08 09:13:57;;;;;;;22.17;8.53;;;;;;;;;;5039679;28;20039;-93
2022/01/08 09:16:23;;;;;;;26.60;8.50;;;;;;;;;;5039819;28;20473;-92
2022/01/08 09:18:48;;;;;;;24.43;8.17;;;;;;;;;;5039818;28;20024;-93
2022/01/08 09:21:14;;;;;;;23.80;8.67;;;;;;;;;;5057834;28;20057;-93
2022/01/08 09:23:39;;;;;;;21.50;9.80;;;;;;;;;;5039639;28;20029;-93
2022/01/08 09:26:05;;;;;;;20.77;8.43;;;;;;;;;;5039206;28;20024;-93
2022/01/08 09:28:30;;;;;;;19.67;6.83;;;;;;;;;;5038032;28;20111;-95
2022/01/08 09:30:56;;;;;;;23.43;8.90;;;;;;;;;;5028083;28;20024;-95
2022/01/08 09:33:21;;;;;;;21.70;8.87;;;;;;;;;;5039509;28;20020;-95
2022/01/08 09:35:47;;;;;;;16.83;7.80;;;;;;;;;;5039402;28;20013;-95
2022/01/08 09:38:12;;;;;;;24.77;9.07;;;;;;;;;;5039014;28;20021;-95
2022/01/08 09:40:37;;;;;;;18.40;8.37;;;;;;;;;;5039094;28;20040;-95
2022/01/08 09:43:03;;;;;;;25.70;9.87;;;;;;;;;;5038598;28;20071;-95
2022/01/08 09:45:28;;;;;;;23.30;9.47;;;;;;;;;;5035130;28;20014;-95
2022/01/08 09:47:53;;;;;;;19.03;8.60;;;;;;;;;;5039214;28;20028;-95
2022/01/08 09:50:19;;;;;;;19.97;8.63;;;;;;;;;;5038621;28;20021;-95
2022/01/08 09:52:44;;;;;;;18.87;7.77;;;;;;;;;;5038969;28;20033;-94
2022/01/08 09:55:09;;;;;;;19.13;7.60;;;;;;;;;;5038562;28;20024;-95
2022/01/08 09:57:34;;;;;;;21.77;8.43;;;;;;;;;;5037687;28;20361;-95
2022/01/08 10:00:00;;;;;;;20.30;7.53;;;;;;;;;;5056480;28;20029;-94
2022/01/08 10:02:26;;;;;;;13.17;5.60;;;;;;;;;;5038952;28;20484;-95
2022/01/08 10:04:51;;;;;;;16.97;5.90;;;;;;;;;;5029152;28;20036;-95
2022/01/08 10:07:17;;;;;;;16.97;6.50;;;;;;;;;;5038541;28;20396;-95
2022/01/08 10:10:01;;;;;;;13.30;5.77;;;;;;;;;;5036958;28;20086;-95
2022/01/08 10:12:46;;;;;;;15.47;6.07;;;;;;;;;;5037614;28;20029;-94
2022/01/08 10:17:58;;;;;;;14.23;5.40;;;;;;;;;;5040935;28;20154;-95
2022/01/08 10:20:46;;;;;;;15.07;5.27;;;;;;;;;;5038152;28;20122;-95
2022/01/08 10:23:22;;;;;;;13.87;4.77;;;;;;;;;;5033042;28;20017;-95
2022/01/08 10:25:57;;;;;;;12.33;4.90;;;;;;;;;;5038438;28;20017;-94
2022/01/08 10:28:43;;;;;;;10.30;4.70;;;;;;;;;;5038628;28;20366;-95
2022/01/08 10:31:12;;;;;;;19.80;5.33;;;;;;;;;;5043950;28;20067;-95
2022/01/08 10:33:38;;;;;;;11.87;4.47;;;;;;;;;;5038061;28;20348;-94
2022/01/08 10:36:04;;;;;;;11.83;4.30;;;;;;;;;;5038362;28;20629;-94
2022/01/08 10:38:30;;;;;;;7.70;3.53;;;;;;;;;;5038220;28;20033;-94
2022/01/08 10:40:55;;;;;;;12.17;3.77;;;;;;;;;;5038356;28;20144;-94
2022/01/08 10:43:31;;;;;;;8.40;3.90;;;;;;;;;;5028395;28;20070;-94
2022/01/08 10:46:07;;;;;;;11.57;5.10;;;;;;;;;;5038052;28;20033;-93
2022/01/08 10:48:33;;;;;;;15.80;4.77;;;;;;;;;;5055239;28;20024;-93
2022/01/08 10:51:09;;;;;;;12.73;4.60;;;;;;;;;;5036894;28;20476;-94
2022/01/08 10:53:54;;;;;;;12.67;4.87;;;;;;;;;;5036277;28;20082;-92
2022/01/08 10:56:25;;;;;;;12.13;4.23;;;;;;;;;;5055544;28;20066;-93
2022/01/08 10:58:52;;;;;;;18.63;4.97;;;;;;;;;;5052700;28;20056;-92
2022/01/08 11:01:36;;;;;;;7.83;3.10;;;;;;;;;;5018510;28;20057;-93
2022/01/08 11:04:02;;;;;;;8.53;3.80;;;;;;;;;;5017742;28;20393;-93
2022/01/08 11:06:27;;;;;;;8.83;3.30;;;;;;;;;;5036460;28;20116;-92
2022/01/08 11:09:02;;;;;;;7.90;2.80;;;;;;;;;;5037435;28;20522;-93
2022/01/08 11:11:30;;;;;;;11.07;3.37;;;;;;;;;;5037498;28;20029;-93
2022/01/08 11:14:04;;;;;;;8.97;3.60;;;;;;;;;;5055228;28;20044;-94
2022/01/08 11:16:31;;;;;;;7.33;3.13;;;;;;;;;;5037422;28;20052;-94
2022/01/08 11:18:56;;;;;;;9.97;3.50;;;;;;;;;;5052602;28;20021;-93
2022/01/08 11:21:23;;;;;;;7.03;3.13;;;;;;;;;;5036983;28;20376;-93
2022/01/08 11:23:48;;;;;;;10.70;3.50;;;;;;;;;;5037245;28;20063;-93
2022/01/08 11:26:13;;;;;;;6.23;2.23;;;;;;;;;;5037446;28;20029;-94
2022/01/08 11:28:42;;;;;;;4.10;2.17;;;;;;;;;;5037493;28;20032;-94
2022/01/08 11:31:10;;;;;;;9.87;3.43;;;;;;;;;;5037071;28;20029;-94
2022/01/08 11:33:43;;;;;;;4.23;1.90;;;;;;;;;;5025618;28;20048;-93
2022/01/08 11:36:09;;;;;;;5.53;2.67;;;;;;;;;;5034965;28;20023;-93
2022/01/08 11:38:35;;;;;;;5.50;2.47;;;;;;;;;;5054977;28;20041;-94
2022/01/08 11:41:00;;;;;;;6.17;2.27;;;;;;;;;;5033835;28;20172;-94
2022/01/08 11:43:26;;;;;;;11.67;3.00;;;;;;;;;;5036831;28;20021;-94
2022/01/08 11:45:53;;;;;;;5.80;2.07;;;;;;;;;;5054287;28;20028;-93
2022/01/08 11:48:21;;;;;;;7.93;2.60;;;;;;;;;;5036888;28;20024;-93
2022/01/08 11:50:50;;;;;;;8.17;2.93;;;;;;;;;;5035139;28;20021;-95
2022/01/08 11:53:16;;;;;;;6.83;1.33;;;;;;;;;;5035955;28;20021;-94
2022/01/08 11:55:42;;;;;;;9.33;2.27;;;;;;;;;;5035161;28;20035;-93
2022/01/08 11:58:23;;;;;;;1.90;0.60;;;;;;;;;;5026756;28;20100;-94
2022/01/08 12:00:54;;;;;;;6.77;2.50;;;;;;;;;;5032517;28;20053;-94
2022/01/08 12:03:21;;;;;;;4.93;2.27;;;;;;;;;;5036347;28;20048;-93
2022/01/08 12:05:46;;;;;;;6.47;2.03;;;;;;;;;;5036273;28;20033;-93
2022/01/08 12:08:15;;;;;;;8.27;2.60;;;;;;;;;;5045969;28;20017;-94
2022/01/08 12:10:51;;;;;;;4.67;1.70;;;;;;;;;;5037259;28;20025;-94
2022/01/08 12:13:37;;;;;;;5.03;2.00;;;;;;;;;;5019228;28;20033;-94
2022/01/08 12:16:02;;;;;;;4.63;0.83;;;;;;;;;;5036539;28;20021;-95
2022/01/08 12:18:47;;;;;;;5.87;2.13;;;;;;;;;;5036400;28;20032;-94
2022/01/08 12:21:29;;;;;;;3.20;0.80;;;;;;;;;;5036251;28;20033;-95
2022/01/08 12:23:54;;;;;;;6.53;2.13;;;;;;;;;;5036571;28;20385;-94
2022/01/08 12:26:22;;;;;;;3.17;1.60;;;;;;;;;;5036456;28;20021;-95
2022/01/08 12:28:47;;;;;;;1.60;0.83;;;;;;;;;;5036462;28;20469;-96
2022/01/08 12:31:21;;;;;;;8.67;1.77;;;;;;;;;;5036067;28;20032;-94
2022/01/08 12:33:47;;;;;;;3.57;1.77;;;;;;;;;;5036550;28;20495;-95
2022/01/08 12:36:32;;;;;;;0.93;0.47;;;;;;;;;;5036398;28;20017;-95
2022/01/08 12:39:03;;;;;;;5.13;1.90;;;;;;;;;;5036321;28;20108;-95
2022/01/08 12:41:29;;;;;;;1.97;0.73;;;;;;;;;;5039201;28;20521;-96
2022/01/08 12:43:55;;;;;;;5.37;1.23;;;;;;;;;;5034913;28;20025;-94
2022/01/08 12:46:24;;;;;;;1.70;1.33;;;;;;;;;;5027720;28;20029;-96
2022/01/08 12:49:08;;;;;;;4.63;1.23;;;;;;;;;;5039301;28;20029;-96
2022/01/08 12:51:49;;;;;;;6.20;1.40;;;;;;;;;;5038152;28;20036;-95
2022/01/08 12:54:16;;;;;;;1.63;0.40;;;;;;;;;;5051248;28;20025;-96
2022/01/08 12:56:46;;;;;;;0.87;0.40;;;;;;;;;;5036198;28;20388;-95
2022/01/08 12:59:11;;;;;;;0.47;0.43;;;;;;;;;;5032902;28;20018;-95
2022/01/08 13:01:41;;;;;;;4.77;2.10;;;;;;;;;;5032047;28;20040;-95
2022/01/08 13:04:15;;;;;;;2.77;1.50;;;;;;;;;;5036157;28;20036;-93
2022/01/08 13:06:40;;;;;;;1.80;1.10;;;;;;;;;;5036765;28;20540;-94
2022/01/08 13:09:07;;;;;;;4.53;1.40;;;;;;;;;;5036374;28;20056;-95
2022/01/08 13:11:33;;;;;;;2.53;1.40;;;;;;;;;;5036545;28;20487;-96
2022/01/08 13:14:00;;;;;;;5.50;1.90;;;;;;;;;;5036228;28;20049;-95
2022/01/08 13:16:27;;;;;;;1.80;0.60;;;;;;;;;;5036172;28;20028;-96
2022/01/08 13:18:57;;;;;;;1.70;0.60;;;;;;;;;;5036401;28;20070;-96
2022/01/08 13:21:23;;;;;;;3.23;1.17;;;;;;;;;;5040445;28;20432;-95
2022/01/08 13:23:50;;;;;;;4.30;1.70;;;;;;;;;;5035567;28;20473;-95
2022/01/08 13:26:16;;;;;;;5.60;1.90;;;;;;;;;;5039233;28;20029;-96
2022/01/08 13:28:47;;;;;;;4.50;1.20;;;;;;;;;;5041425;28;20025;-96
2022/01/08 13:31:13;;;;;;;4.13;1.17;;;;;;;;;;5032926;28;20477;-95
2022/01/08 13:33:38;;;;;;;3.07;1.37;;;;;;;;;;5035348;28;20024;-96
2022/01/08 13:36:04;;;;;;;6.17;1.23;;;;;;;;;;5039175;28;20427;-95
2022/01/08 13:38:31;;;;;;;6.77;2.47;;;;;;;;;;5050138;28;20103;-94
2022/01/08 13:41:04;;;;;;;6.60;1.77;;;;;;;;;;5039367;28;20025;-95
2022/01/08 13:43:30;;;;;;;3.70;1.57;;;;;;;;;;5040395;28;20029;-96
2022/01/08 13:45:55;;;;;;;8.50;2.33;;;;;;;;;;5040325;28;20031;-95
2022/01/08 13:48:20;;;;;;;14.73;3.40;;;;;;;;;;5037531;28;20091;-96
2022/01/08 13:50:52;;;;;;;8.47;1.80;;;;;;;;;;5048630;28;20025;-96
2022/01/08 13:53:18;;;;;;;4.43;1.63;;;;;;;;;;5055736;28;20469;-96
2022/01/08 13:55:45;;;;;;;1.57;1.17;;;;;;;;;;5028259;28;20037;-96
2022/01/08 13:58:10;;;;;;;2.87;1.40;;;;;;;;;;5039937;28;20064;-96
2022/01/08 14:00:37;;;;;;;3.57;1.40;;;;;;;;;;5039884;28;20017;-95
2022/01/08 14:03:02;;;;;;;3.73;1.43;;;;;;;;;;5038851;28;20029;-96
2022/01/08 14:05:28;;;;;;;2.37;1.13;;;;;;;;;;5038555;28;20021;-96
2022/01/08 14:08:03;;;;;;;4.13;1.60;;;;;;;;;;5039449;28;20025;-96
2022/01/08 14:10:34;;;;;;;3.73;1.47;;;;;;;;;;5038934;28;20047;-94
2022/01/08 14:13:04;;;;;;;2.00;1.45;;;;;;;;;;5046553;28;20384;-96
2022/01/08 14:15:29;;;;;;;2.23;1.23;;;;;;;;;;5059131;28;20027;-95
2022/01/08 14:17:54;;;;;;;3.67;1.20;;;;;;;;;;5043631;28;20084;-96
2022/01/08 14:20:24;;;;;;;3.97;1.13;;;;;;;;;;5038403;28;20025;-96
2022/01/08 14:22:49;;;;;;;4.40;1.40;;;;;;;;;;5043120;28;20036;-96
2022/01/08 14:25:18;;;;;;;4.70;1.27;;;;;;;;;;5039606;28;20038;-96
2022/01/08 14:27:44;;;;;;;2.07;0.93;;;;;;;;;;5038827;28;20021;-96
2022/01/08 14:30:12;;;;;;;1.70;1.03;;;;;;;;;;5038712;28;20538;-94
2022/01/08 14:32:38;;;;;;;4.20;1.10;;;;;;;;;;5038026;28;20117;-95
2022/01/08 14:35:03;;;;;;;3.73;1.30;;;;;;;;;;5031965;28;20060;-94
2022/01/08 14:37:43;;;;;;;3.40;0.90;;;;;;;;;;5030013;28;20021;-94
2022/01/08 14:40:28;;;;;;;2.17;0.90;;;;;;;;;;5032812;28;20043;-95
2022/01/08 14:43:07;;;;;;;2.57;1.03;;;;;;;;;;5021158;28;20022;-94
2022/01/08 14:45:33;;;;;;;2.20;1.10;;;;;;;;;;5033578;28;20051;-96
2022/01/08 14:48:00;;;;;;;1.17;0.80;;;;;;;;;;5038768;28;20028;-96
2022/01/08 14:50:26;;;;;;;1.70;0.90;;;;;;;;;;5052245;28;20124;-96